Time;durP1;ratioP1;P1;durP2;ratioP2;P2;SDS_P1;SDS_P2;PMS_P1;PMS_P2;Temp;Humidity;BMP_temperature;BMP_pressure;BME280_temperature;BME280_humidity;BME280_pressure;Samples;Min_cycle;Max_cycle;Signal;HPM_P1;HPM_P2
2022/08/21 00:03:03;;;;;;;8.93;3.08;;;;;;;13.97;86.07;101498.25;10544350;28;20122;-75
2022/08/21 00:08:05;;;;;;;8.45;2.97;;;;;;;13.94;86.41;101486.81;10544496;28;20051;-74
2022/08/21 00:13:08;;;;;;;10.02;2.78;;;;;;;13.91;86.48;101474.47;10537033;28;20067;-74
2022/08/21 00:18:10;;;;;;;7.60;2.65;;;;;;;13.85;86.45;101477.03;10544562;28;20765;-76
2022/08/21 00:23:13;;;;;;;8.88;2.22;;;;;;;13.75;86.28;101478.66;10543453;28;20050;-75
2022/08/21 00:28:14;;;;;;;5.82;2.50;;;;;;;-147.53;100.00;57128.34;10546848;28;20053;-76
2022/08/21 00:33:16;;;;;;;12.52;2.85;;;;;;;-147.53;100.00;57128.34;10543401;28;20048;-76
2022/08/21 00:38:19;;;;;;;10.35;2.97;;;;;;;-147.53;100.00;57128.34;10546474;28;20048;-75
2022/08/21 00:43:27;;;;;;;10.25;4.45;;;;;;;-147.53;100.00;57128.34;10538017;28;20693;-75
2022/08/21 00:48:28;;;;;;;9.50;2.92;;;;;;;-147.53;100.00;57128.34;10539259;28;20057;-75
2022/08/21 00:53:31;;;;;;;8.40;2.90;;;;;;;13.75;86.28;101478.66;10543437;28;20051;-75
2022/08/21 00:58:35;;;;;;;8.15;3.20;;;;;;;13.35;87.46;101466.63;10531650;28;20800;-75
2022/08/21 01:03:38;;;;;;;9.10;3.15;;;;;;;13.31;87.83;101468.25;10532276;28;20058;-74
2022/08/21 01:08:46;;;;;;;7.20;3.03;;;;;;;13.27;87.98;101456.81;10545127;28;20067;-76
2022/08/21 01:13:48;;;;;;;7.10;2.40;;;;;;;13.24;87.88;101459.41;10542690;28;20738;-74
2022/08/21 01:18:51;;;;;;;9.02;2.97;;;;;;;13.17;87.96;101462.78;10538778;28;20046;-75
2022/08/21 01:23:54;;;;;;;10.20;2.95;;;;;;;13.15;88.11;101467.13;10547940;28;20048;-77
2022/08/21 01:29:07;;;;;;;6.97;2.90;;;;;;;13.12;88.00;101464.44;10543470;28;20119;-77
2022/08/21 01:34:09;;;;;;;12.95;3.03;;;;;;;13.10;88.10;101460.88;10519723;28;20105;-73
2022/08/21 01:39:11;;;;;;;6.13;2.35;;;;;;;13.06;88.15;101464.31;10547708;28;20048;-76
2022/08/21 01:44:13;;;;;;;9.70;2.92;;;;;;;12.98;88.12;101466.81;10539211;28;20070;-74
2022/08/21 01:49:15;;;;;;;11.00;2.95;;;;;;;12.95;87.97;101460.63;10528322;28;20143;-74
2022/08/21 01:54:17;;;;;;;6.35;2.35;;;;;;;12.94;88.29;101454.50;10534880;28;20044;-74
2022/08/21 01:59:20;;;;;;;6.45;2.80;;;;;;;12.93;88.23;101465.84;10539381;28;20048;-74
2022/08/21 02:04:22;;;;;;;6.55;2.70;;;;;;;12.92;88.36;101464.06;10534133;28;20048;-76
2022/08/21 02:09:24;;;;;;;9.85;2.75;;;;;;;12.94;88.53;101453.59;10512916;28;20050;-74
2022/08/21 02:14:26;;;;;;;6.78;2.58;;;;;;;12.91;88.61;101443.94;10539028;28;20051;-76
2022/08/21 02:19:33;;;;;;;6.63;2.30;;;;;;;12.90;88.50;101448.28;10528886;28;20074;-74
2022/08/21 02:24:40;;;;;;;10.05;2.90;;;;;;;12.91;88.74;101430.78;10534759;28;20774;-75
2022/08/21 02:29:57;;;;;;;4.47;2.20;;;;;;;12.89;88.63;101435.97;10546130;28;20089;-73
2022/08/21 02:34:58;;;;;;;6.07;2.20;;;;;;;12.87;88.74;101442.97;10547921;28;20039;-74
2022/08/21 02:40:01;;;;;;;6.28;2.42;;;;;;;12.83;88.67;101437.63;10546024;28;20052;-77
2022/08/21 02:45:03;;;;;;;7.78;2.70;;;;;;;12.74;88.82;101427.81;10549330;28;20402;-74
2022/08/21 02:50:06;;;;;;;7.95;3.13;;;;;;;12.70;88.72;101424.28;10546925;28;20126;-73
2022/08/21 02:55:08;;;;;;;8.23;2.70;;;;;;;12.69;88.92;101419.00;10544394;28;20066;-73
2022/08/21 03:00:11;;;;;;;6.55;2.63;;;;;;;12.69;89.14;101411.97;10548999;28;20044;-73
2022/08/21 03:05:14;;;;;;;15.95;3.42;;;;;;;12.77;89.13;101412.13;10540641;28;20451;-73
2022/08/21 03:10:16;;;;;;;5.25;2.80;;;;;;;12.78;88.92;101405.13;10548070;28;20049;-74
2022/08/21 03:15:22;;;;;;;5.30;2.65;;;;;;;-147.53;100.00;57128.34;10529323;28;20043;-73
2022/08/21 03:20:28;;;;;;;9.88;2.80;;;;;;;-147.53;100.00;57128.34;10536867;28;20047;-75
2022/08/21 03:25:33;;;;;;;10.63;2.78;;;;;;;-147.53;100.00;57128.34;10545052;28;20055;-76
2022/08/21 03:30:43;;;;;;;5.47;2.45;;;;;;;-147.53;100.00;57128.34;10547391;28;20040;-73
2022/08/21 03:35:57;;;;;;;9.88;3.10;;;;;;;-147.53;100.00;57128.34;10554872;28;20047;-75
2022/08/21 03:40:59;;;;;;;12.23;3.22;;;;;;;-147.53;100.00;57128.34;10543869;28;20384;-73
2022/08/21 03:46:03;;;;;;;7.43;3.08;;;;;;;-147.53;100.00;57128.34;10548790;28;20150;-76
2022/08/21 03:51:06;;;;;;;9.35;3.05;;;;;;;-147.53;100.00;57128.34;10537709;28;20085;-73
2022/08/21 03:56:07;;;;;;;7.63;2.85;;;;;;;-147.53;100.00;57128.34;10550288;28;20498;-76
2022/08/21 04:01:09;;;;;;;7.65;2.80;;;;;;;-147.53;100.00;57128.34;10542030;28;20054;-73
2022/08/21 04:06:11;;;;;;;10.57;3.05;;;;;;;-147.53;100.00;57128.34;10544290;28;20051;-74
2022/08/21 04:11:14;;;;;;;9.00;3.13;;;;;;;-147.53;100.00;57128.34;10518060;28;20054;-77
2022/08/21 04:16:16;;;;;;;8.02;3.20;;;;;;;-147.53;100.00;57128.34;10545920;28;20047;-73
2022/08/21 04:21:17;;;;;;;13.65;3.95;;;;;;;-147.53;100.00;57128.34;10533194;28;20533;-74
2022/08/21 04:26:25;;;;;;;9.32;3.28;;;;;;;-147.53;100.00;57128.34;10541694;28;20453;-74
2022/08/21 04:31:28;;;;;;;8.43;3.60;;;;;;;12.77;88.99;101424.38;10545983;28;20039;-74
2022/08/21 04:36:31;;;;;;;8.70;3.63;;;;;;;12.18;90.52;101416.25;10548066;28;20035;-75
2022/08/21 04:41:32;;;;;;;12.52;3.90;;;;;;;12.15;90.48;101423.19;10544593;28;20158;-77
2022/08/21 04:46:34;;;;;;;7.93;3.63;;;;;;;12.14;90.51;101426.66;10547301;28;20655;-74
2022/08/21 04:51:38;;;;;;;12.20;4.70;;;;;;;12.12;90.41;101434.50;10540035;28;20118;-76
2022/08/21 04:56:45;;;;;;;11.40;4.22;;;;;;;12.18;90.60;101434.63;10521211;28;20078;-74
2022/08/21 05:01:46;;;;;;;7.95;4.57;;;;;;;12.23;90.76;101432.09;10541194;28;20548;-73
2022/08/21 05:06:50;;;;;;;11.25;5.03;;;;;;;12.31;90.97;101440.13;10535528;28;20036;-76
2022/08/21 05:11:52;;;;;;;12.93;6.00;;;;;;;12.38;90.77;101442.03;10539803;28;20047;-74
2022/08/21 05:16:54;;;;;;;14.48;5.40;;;;;;;-147.53;100.00;57128.34;10534264;28;20040;-75
2022/08/21 05:21:55;;;;;;;15.82;6.15;;;;;;;-147.53;100.00;57128.34;10544184;28;20052;-73
2022/08/21 05:26:57;;;;;;;13.18;7.18;;;;;;;-147.53;100.00;57128.34;10547522;28;20032;-73
2022/08/21 05:31:59;;;;;;;14.25;6.90;;;;;;;-147.53;100.00;57128.34;10544660;28;20052;-76
2022/08/21 05:37:00;;;;;;;18.65;7.38;;;;;;;-147.53;100.00;57128.34;10541225;28;20541;-73
2022/08/21 05:42:08;;;;;;;16.08;7.32;;;;;;;-147.53;100.00;57128.34;10542966;28;20806;-73
2022/08/21 05:47:11;;;;;;;15.05;6.82;;;;;;;-147.53;100.00;57128.34;10538471;28;20036;-76
2022/08/21 05:52:19;;;;;;;16.38;7.93;;;;;;;-147.53;100.00;57128.34;10538040;28;20047;-74
2022/08/21 05:57:21;;;;;;;15.68;7.60;;;;;;;-147.53;100.00;57128.34;10546926;28;20111;-73
2022/08/21 06:02:23;;;;;;;15.55;8.02;;;;;;;-147.53;100.00;57128.34;10525508;28;20046;-73
2022/08/21 06:07:24;;;;;;;14.55;7.25;;;;;;;13.89;91.14;101431.47;10548609;28;20047;-77
2022/08/21 06:12:26;;;;;;;19.58;8.20;;;;;;;14.05;90.84;101429.03;10548464;28;20640;-75
2022/08/21 06:17:27;;;;;;;16.50;8.15;;;;;;;14.23;90.76;101434.53;10529871;28;20049;-73
2022/08/21 06:22:29;;;;;;;19.27;8.15;;;;;;;14.45;90.63;101433.03;10549148;28;20443;-77
2022/08/21 06:27:30;;;;;;;16.08;7.53;;;;;;;14.66;90.22;101432.41;10546693;28;20042;-75
2022/08/21 06:32:32;;;;;;;16.55;8.00;;;;;;;14.89;89.88;101438.78;10549876;28;20131;-74
2022/08/21 06:37:34;;;;;;;16.02;7.50;;;;;;;15.16;89.37;101435.50;10548071;28;20048;-76
2022/08/21 06:42:35;;;;;;;14.88;6.40;;;;;;;15.44;89.18;101436.63;10551553;28;20042;-74
2022/08/21 06:47:37;;;;;;;19.20;6.38;;;;;;;15.77;88.07;101431.56;10544562;28;20038;-74
2022/08/21 06:52:39;;;;;;;11.73;5.80;;;;;;;15.98;87.25;101429.06;10547707;28;20054;-75
2022/08/21 06:57:40;;;;;;;11.55;5.45;;;;;;;17.61;85.68;101430.22;10549874;28;20039;-73
2022/08/21 07:02:48;;;;;;;15.00;5.45;;;;;;;-147.53;100.00;57128.34;10544997;28;20032;-75
2022/08/21 07:07:50;;;;;;;15.70;5.10;;;;;;;20.00;78.15;101425.19;10545916;28;20042;-75
2022/08/21 07:12:53;;;;;;;14.23;4.80;;;;;;;20.69;74.93;101434.03;10549690;28;20039;-74
2022/08/21 07:18:02;;;;;;;16.33;4.50;;;;;;;21.62;71.58;101431.66;10546526;28;20588;-73
2022/08/21 07:23:10;;;;;;;11.38;4.45;;;;;;;21.56;69.35;101439.75;10524537;28;20048;-73
2022/08/21 07:28:12;;;;;;;13.30;4.17;;;;;;;21.43;68.48;101438.19;10547184;28;20048;-75
2022/08/21 07:33:13;;;;;;;14.93;3.78;;;;;;;21.94;67.48;101439.94;10541980;28;20446;-74
2022/08/21 07:38:15;;;;;;;8.57;3.55;;;;;;;21.80;65.92;101437.53;10545502;28;20047;-74
2022/08/21 07:43:17;;;;;;;7.00;2.78;;;;;;;22.07;64.63;101434.31;10544559;28;20035;-75
2022/08/21 07:48:20;;;;;;;6.25;2.72;;;;;;;22.26;63.52;101441.94;10548176;28;20481;-75
2022/08/21 07:53:21;;;;;;;10.50;3.13;;;;;;;23.01;62.62;101443.84;10525988;28;20050;-75
2022/08/21 07:58:23;;;;;;;9.80;2.88;;;;;;;23.68;61.81;101438.56;10543521;28;20032;-74
2022/08/21 08:03:25;;;;;;;8.20;2.88;;;;;;;23.93;60.21;101444.16;10541093;28;20087;-75
2022/08/21 08:08:29;;;;;;;10.40;4.13;;;;;;;23.24;60.32;101445.94;10541662;28;20076;-74
2022/08/21 08:13:31;;;;;;;7.28;2.40;;;;;;;23.28;61.06;101440.53;10522241;28;20051;-74
2022/08/21 08:18:32;;;;;;;10.07;2.92;;;;;;;23.37;60.03;101450.06;10526868;28;20039;-74
2022/08/21 08:23:34;;;;;;;9.02;2.47;;;;;;;23.68;60.03;101441.25;10542333;28;20418;-85
2022/08/21 08:28:36;;;;;;;9.13;2.80;;;;;;;23.80;59.35;101437.38;10537016;28;20039;-73
2022/08/21 08:33:38;;;;;;;12.93;2.20;;;;;;;24.13;58.83;101435.53;10541067;28;20040;-73
2022/08/21 08:38:40;;;;;;;10.05;2.33;;;;;;;24.24;58.25;101442.38;10542177;28;20109;-72
2022/08/21 08:43:51;;;;;;;14.35;2.70;;;;;;;24.13;57.91;101451.59;10501881;28;20046;-73
2022/08/21 08:49:08;;;;;;;12.40;3.03;;;;;;;24.30;56.77;101442.19;10537901;28;20047;-72
2022/08/21 08:54:25;;;;;;;9.48;2.35;;;;;;;24.11;56.48;101441.84;10539174;28;20044;-70
2022/08/21 08:59:40;;;;;;;10.50;2.40;;;;;;;23.95;56.55;101450.34;10533044;28;20042;-71
2022/08/21 09:04:47;;;;;;;7.57;2.63;;;;;;;24.00;56.32;101440.41;10522362;28;20044;-72
2022/08/21 09:10:04;;;;;;;9.88;2.20;;;;;;;24.63;56.24;101437.63;10532264;28;20729;-72
2022/08/21 09:15:16;;;;;;;8.30;1.90;;;;;;;24.72;55.28;101439.16;10531123;28;20047;-72
2022/08/21 09:20:35;;;;;;;10.45;2.03;;;;;;;24.14;54.96;101434.63;10543445;28;20523;-72
2022/08/21 09:26:00;;;;;;;8.88;1.77;;;;;;;22.77;56.59;101433.72;10530668;28;20410;-72
2022/08/21 09:31:06;;;;;;;7.40;2.47;;;;;;;22.69;57.85;101425.00;10542704;28;20442;-72
2022/08/21 09:36:08;;;;;;;5.60;1.70;;;;;;;23.07;57.58;101425.84;10545507;28;20117;-72
2022/08/21 09:41:10;;;;;;;8.35;2.13;;;;;;;23.34;57.45;101428.78;10537388;28;20388;-74
2022/08/21 09:46:22;;;;;;;12.13;2.35;;;;;;;23.71;56.18;101425.13;10543932;28;20199;-72
2022/08/21 09:51:28;;;;;;;12.05;2.08;;;;;;;24.17;55.48;101423.84;10543017;28;20050;-72
2022/08/21 10:01:54;;;;;;;7.70;1.70;;;;;;;24.34;53.35;101417.09;10538017;28;20043;-72
2022/08/21 10:07:10;;;;;;;9.75;1.52;;;;;;;24.68;53.28;101421.41;10527104;28;20040;-72
2022/08/21 10:12:24;;;;;;;6.35;1.60;;;;;;;24.70;52.00;101425.81;10542190;28;20046;-74
2022/08/21 10:17:43;;;;;;;6.53;1.77;;;;;;;24.93;52.04;101412.59;10530883;28;20071;-72
2022/08/21 10:23:15;;;;;;;6.40;1.80;;;;;;;25.31;52.02;101415.81;10542307;28;20051;-71
2022/08/21 10:28:59;;;;;;;9.55;2.00;;;;;;;25.53;51.03;101405.22;10530562;28;20032;-72
2022/08/21 10:34:28;;;;;;;6.32;1.73;;;;;;;25.84;50.31;101404.13;10475103;28;20580;-71
2022/08/21 10:39:36;;;;;;;7.50;1.40;;;;;;;25.88;49.44;101412.00;10518160;28;20032;-72
2022/08/21 10:44:54;;;;;;;4.88;1.48;;;;;;;25.69;48.49;101410.91;10529227;28;20036;-74
2022/08/21 10:50:51;;;;;;;8.15;1.73;;;;;;;25.50;48.64;101392.78;10519350;28;20784;-72
2022/08/21 10:56:04;;;;;;;5.43;1.60;;;;;;;25.23;49.59;101405.34;10462805;28;20039;-74
2022/08/21 11:01:27;;;;;;;2.72;1.20;;;;;;;25.20;49.01;101397.41;10533388;28;20135;-72
2022/08/21 11:06:32;;;;;;;6.47;1.38;;;;;;;25.64;49.86;101412.88;10539289;28;20692;-76
2022/08/21 11:11:44;;;;;;;13.23;1.42;;;;;;;25.48;48.62;101410.75;10538219;28;20101;-73
2022/08/21 11:17:11;;;;;;;5.55;1.30;;;;;;;26.03;47.51;101409.69;10534986;28;20107;-73
2022/08/21 11:22:18;;;;;;;6.13;1.40;;;;;;;25.95;47.24;101404.56;10525886;28;20422;-73
2022/08/21 11:27:26;;;;;;;10.57;1.67;;;;;;;25.40;47.91;101404.75;10525348;28;20040;-74
2022/08/21 11:32:36;;;;;;;8.33;1.70;;;;;;;25.22;49.26;101393.75;10530899;28;20630;-74
2022/08/21 11:37:53;;;;;;;53.08;40.55;;;;;;;25.79;48.54;101406.06;10513811;28;20039;-72
2022/08/21 11:43:01;;;;;;;115.07;91.60;;;;;;;26.06;48.14;101399.72;10527299;28;20048;-73
2022/08/21 11:48:09;;;;;;;17.37;10.63;;;;;;;25.79;48.26;101406.06;10527626;28;20051;-72
2022/08/21 11:53:26;;;;;;;92.13;84.40;;;;;;;25.67;48.14;101404.72;10532717;28;20054;-70
2022/08/21 11:58:39;;;;;;;57.63;49.17;;;;;;;25.73;48.29;101401.81;10535689;28;20401;-71
2022/08/21 12:03:56;;;;;;;6.22;1.73;;;;;;;26.12;47.74;101412.00;10546549;28;20042;-72
2022/08/21 12:09:01;;;;;;;13.45;10.85;;;;;;;26.29;46.93;101403.31;10532177;28;20126;-72
2022/08/21 12:14:06;;;;;;;5.22;1.70;;;;;;;26.22;46.64;101400.00;10536523;28;20533;-72
2022/08/21 12:19:10;;;;;;;29.27;17.15;;;;;;;26.55;46.61;101396.91;10534322;28;20491;-73
2022/08/21 12:24:31;;;;;;;26.65;15.43;;;;;;;26.72;45.44;101396.28;10539019;28;20052;-72
2022/08/21 12:29:37;;;;;;;16.83;5.60;;;;;;;26.62;45.28;101398.41;10532913;28;20047;-80
2022/08/21 12:34:46;;;;;;;14.98;6.80;;;;;;;26.54;45.10;101395.19;10518388;28;20062;-74
2022/08/21 12:39:52;;;;;;;71.75;42.83;;;;;;;26.21;45.46;101394.69;10531238;28;20036;-76
2022/08/21 12:44:59;;;;;;;95.35;47.05;;;;;;;25.87;45.95;101387.91;10518071;28;20593;-72
2022/08/21 12:50:12;;;;;;;10.05;5.00;;;;;;;25.70;46.57;101392.09;10515120;28;20546;-73
2022/08/21 12:55:16;;;;;;;13.90;5.38;;;;;;;25.86;46.92;101376.28;10533332;28;20058;-74
2022/08/21 13:00:22;;;;;;;14.27;5.70;;;;;;;26.49;46.14;101375.69;10532018;28;20032;-75
2022/08/21 13:05:34;;;;;;;7.65;1.95;;;;;;;26.73;44.83;101378.34;10506958;28;20539;-74
2022/08/21 13:10:37;;;;;;;8.13;1.60;;;;;;;26.90;44.46;101381.19;10522366;28;20223;-73
2022/08/21 13:15:41;;;;;;;7.32;1.20;;;;;;;27.04;44.31;101371.66;10506427;28;20053;-73
2022/08/21 13:20:49;;;;;;;7.88;1.67;;;;;;;26.76;44.58;101362.09;10535400;28;20150;-73
2022/08/21 13:25:52;;;;;;;10.15;1.50;;;;;;;26.78;43.66;101362.88;10547235;28;20043;-72
2022/08/21 13:30:55;;;;;;;4.70;1.20;;;;;;;26.40;43.44;101365.31;10518234;28;20054;-71
2022/08/21 13:36:00;;;;;;;4.40;1.40;;;;;;;26.50;44.02;101355.06;10508919;28;20746;-71
2022/08/21 13:41:12;;;;;;;5.15;1.17;;;;;;;26.97;43.91;101369.22;10511624;28;20036;-71
2022/08/21 13:46:14;;;;;;;4.93;1.30;;;;;;;26.97;43.24;101363.00;10532978;28;20122;-73
2022/08/21 13:51:16;;;;;;;4.72;1.20;;;;;;;26.97;42.95;101368.38;10518019;28;20051;-71
2022/08/21 13:56:26;;;;;;;4.75;1.10;;;;;;;26.67;42.69;101362.47;10501040;28;20504;-72
2022/08/21 14:01:28;;;;;;;5.82;1.50;;;;;;;26.81;43.16;101362.75;10507965;28;20044;-73
2022/08/21 14:06:35;;;;;;;7.20;1.35;;;;;;;26.93;43.26;101370.31;10505296;28;20040;-72
2022/08/21 14:11:38;;;;;;;6.63;1.07;;;;;;;26.55;42.22;101370.06;10518276;28;20043;-72
2022/08/21 14:16:55;;;;;;;4.57;1.17;;;;;;;26.90;42.14;101373.16;10523327;28;20470;-73
2022/08/21 14:21:57;;;;;;;5.15;1.00;;;;;;;27.09;42.35;101369.66;10498838;28;20044;-73
2022/08/21 14:27:05;;;;;;;3.15;1.10;;;;;;;26.81;41.59;101373.50;10507449;28;20105;-73
2022/08/21 14:32:20;;;;;;;;;;;;;;;26.17;42.82;101383.19;10520596;28;20047;-73
2022/08/21 14:37:26;;;;;;;4.90;1.20;;;;;;;26.20;43.52;101380.41;10513195;28;20005;-74
2022/08/21 14:42:28;;;;;;;3.70;1.00;;;;;;;26.59;42.75;101393.16;10533728;28;20047;-73
2022/08/21 14:47:30;;;;;;;4.18;1.00;;;;;;;26.07;42.73;101382.66;10536867;28;20042;-74
2022/08/21 14:52:32;;;;;;;1.80;1.00;;;;;;;25.75;42.92;101391.91;10541005;28;20040;-73
2022/08/21 14:57:34;;;;;;;3.50;1.10;;;;;;;25.95;42.56;101375.06;10553694;28;20042;-74
2022/08/21 15:02:35;;;;;;;3.97;1.15;;;;;;;26.24;42.58;101376.66;10532697;28;20111;-75
2022/08/21 15:07:37;;;;;;;3.20;0.95;;;;;;;26.31;41.77;101379.09;10542657;28;20043;-73
2022/08/21 15:12:39;;;;;;;4.18;1.00;;;;;;;26.20;42.07;101369.66;10519561;28;20058;-74
2022/08/21 15:17:41;;;;;;;5.85;1.40;;;;;;;26.41;41.64;101367.06;10540875;28;20028;-73
2022/08/21 15:22:48;;;;;;;4.65;1.33;;;;;;;25.96;42.03;101371.47;10523888;28;20036;-73
2022/08/21 15:27:51;;;;;;;3.70;0.93;;;;;;;26.32;42.48;101371.00;10526047;28;20519;-74
2022/08/21 15:32:52;;;;;;;2.85;1.15;;;;;;;26.42;41.89;101367.00;10531728;28;20419;-73
2022/08/21 15:37:54;;;;;;;5.97;1.20;;;;;;;26.28;41.27;101372.91;10530776;28;20046;-74
2022/08/21 15:42:58;;;;;;;2.90;1.02;;;;;;;26.30;42.15;101370.16;10520440;28;20050;-73
2022/08/21 15:48:00;;;;;;;2.55;0.98;;;;;;;25.87;42.52;101364.63;10527821;28;20051;-73
2022/08/21 15:53:03;;;;;;;5.72;1.00;;;;;;;25.65;43.28;101366.38;10525361;28;20055;-73
2022/08/21 15:58:05;;;;;;;4.20;1.30;;;;;;;25.48;44.07;101378.56;10530080;28;20051;-73
2022/08/21 16:03:11;;;;;;;3.42;1.10;;;;;;;25.40;44.13;101377.97;10522924;28;20040;-75
2022/08/21 16:08:13;;;;;;;3.72;1.30;;;;;;;24.90;44.53;101384.13;10525218;28;20499;-73
2022/08/21 16:13:23;;;;;;;4.05;1.27;;;;;;;24.50;45.01;101385.38;10531481;28;20434;-73
2022/08/21 16:18:26;;;;;;;4.82;1.40;;;;;;;24.24;46.51;101388.88;10531141;28;20048;-74
2022/08/21 16:23:27;;;;;;;5.93;1.42;;;;;;;24.14;47.23;101386.47;10526848;28;20072;-73
2022/08/21 16:28:31;;;;;;;3.15;1.13;;;;;;;23.87;49.13;101387.28;10537733;28;20036;-73
2022/08/21 16:33:36;;;;;;;5.32;1.30;;;;;;;23.70;50.80;101387.75;10529095;28;20049;-76
2022/08/21 16:38:40;;;;;;;6.05;1.55;;;;;;;23.59;52.55;101386.25;10533801;28;20042;-74
2022/08/21 16:43:43;;;;;;;7.20;1.48;;;;;;;23.62;52.99;101380.81;10537868;28;20046;-74
2022/08/21 16:48:44;;;;;;;10.02;1.75;;;;;;;23.91;53.77;101380.94;10543513;28;20043;-75
2022/08/21 16:53:46;;;;;;;8.15;1.40;;;;;;;23.83;53.64;101383.78;10540109;28;20047;-75
2022/08/21 16:58:49;;;;;;;9.65;1.75;;;;;;;23.64;54.08;101394.13;10530092;28;20059;-75
2022/08/21 17:03:52;;;;;;;7.57;1.70;;;;;;;23.47;54.80;101395.47;10544658;28;20389;-75
2022/08/21 17:08:53;;;;;;;6.68;1.65;;;;;;;23.34;55.63;101391.38;10497611;28;20046;-73
2022/08/21 17:13:57;;;;;;;7.60;2.05;;;;;;;23.02;56.36;101405.53;10514614;28;20059;-76
2022/08/21 17:18:59;;;;;;;8.75;1.90;;;;;;;22.93;56.81;101402.16;10522910;28;20044;-75
2022/08/21 17:24:00;;;;;;;10.05;2.10;;;;;;;22.72;57.64;101414.25;10527311;28;20130;-74
2022/08/21 17:29:08;;;;;;;5.72;1.60;;;;;;;22.45;58.64;101410.44;10523917;28;20048;-77
2022/08/21 17:34:10;;;;;;;8.85;1.98;;;;;;;22.31;58.99;101415.16;10538757;28;20407;-74
2022/08/21 17:39:12;;;;;;;6.13;1.77;;;;;;;22.18;59.20;101417.22;10538577;28;20046;-74
2022/08/21 17:44:22;;;;;;;7.65;2.05;;;;;;;22.05;59.41;101428.16;10523882;28;20507;-72
2022/08/21 17:49:24;;;;;;;7.20;2.25;;;;;;;22.03;59.67;101426.41;10541975;28;20050;-73
2022/08/21 17:54:26;;;;;;;9.10;1.70;;;;;;;21.97;60.28;101438.06;10543051;28;20052;-73
2022/08/21 17:59:28;;;;;;;8.02;2.00;;;;;;;21.85;60.63;101430.31;10541765;28;20046;-72
2022/08/21 18:04:30;;;;;;;10.63;1.88;;;;;;;21.73;60.95;101442.09;10541675;28;20503;-72
2022/08/21 18:09:32;;;;;;;8.45;1.92;;;;;;;21.63;61.30;101443.19;10541529;28;20040;-73
2022/08/21 18:14:36;;;;;;;9.35;2.17;;;;;;;21.52;61.98;101448.72;10551172;28;20062;-73
2022/08/21 18:19:38;;;;;;;7.70;2.00;;;;;;;21.42;62.49;101452.41;10545271;28;20575;-73
2022/08/21 18:24:49;;;;;;;11.25;2.17;;;;;;;21.34;62.69;101445.41;10548013;28;20140;-72
2022/08/21 18:29:54;;;;;;;9.30;2.15;;;;;;;21.19;63.52;101451.88;10512247;28;20052;-72
2022/08/21 18:34:57;;;;;;;7.53;2.03;;;;;;;21.06;64.20;101450.31;10544701;28;20689;-72
2022/08/21 18:39:59;;;;;;;18.67;2.33;;;;;;;20.92;64.67;101463.00;10547567;28;20039;-73
2022/08/21 18:45:02;;;;;;;11.95;1.98;;;;;;;20.83;64.98;101464.88;10552431;28;20069;-73
2022/08/21 18:50:06;;;;;;;10.07;2.15;;;;;;;20.69;65.42;101460.66;10524512;28;20048;-72
2022/08/21 18:55:13;;;;;;;10.85;2.28;;;;;;;20.62;65.79;101475.81;10544517;28;20052;-72
2022/08/21 19:00:22;;;;;;;7.40;1.67;;;;;;;20.65;65.57;101470.44;10545194;28;20044;-73
2022/08/21 19:05:24;;;;;;;;;;;;;;;20.61;66.16;101479.34;10546675;28;20406;-72
2022/08/21 19:10:28;;;;;;;8.93;1.83;;;;;;;20.57;66.21;101483.84;10545828;28;19923;-73
2022/08/21 19:15:33;;;;;;;7.63;1.90;;;;;;;20.47;66.84;101493.72;10537853;28;20085;-74
2022/08/21 19:20:35;;;;;;;9.30;2.00;;;;;;;20.41;67.13;101487.59;10551561;28;20039;-72
2022/08/21 19:25:39;;;;;;;9.35;1.98;;;;;;;20.35;67.48;101477.06;10547806;28;20480;-73
2022/08/21 19:30:49;;;;;;;8.52;1.90;;;;;;;20.25;67.95;101486.91;10541860;28;20407;-73
2022/08/21 19:35:52;;;;;;;12.18;2.33;;;;;;;20.21;68.12;101490.53;10547796;28;20035;-72
2022/08/21 19:40:54;;;;;;;9.07;2.17;;;;;;;20.07;68.47;101488.91;10548556;28;20035;-73
2022/08/21 19:45:56;;;;;;;12.18;2.45;;;;;;;19.97;68.99;101495.22;10545981;28;20671;-73
2022/08/21 19:50:58;;;;;;;9.48;2.05;;;;;;;19.87;69.30;101491.75;10545807;28;20032;-73
2022/08/21 19:56:00;;;;;;;8.45;1.60;;;;;;;19.84;69.14;101489.13;10547190;28;20498;-75
2022/08/21 20:01:05;;;;;;;9.30;1.80;;;;;;;19.68;69.27;101500.78;10545062;28;20048;-73
2022/08/21 20:06:17;;;;;;;10.20;2.22;;;;;;;19.57;69.34;101498.22;10528183;28;20047;-73
2022/08/21 20:11:26;;;;;;;6.90;1.67;;;;;;;19.54;69.21;101503.56;10550461;28;20074;-73
2022/08/21 20:16:32;;;;;;;13.23;2.13;;;;;;;19.49;69.38;101511.56;10520145;28;20050;-72
2022/08/21 20:21:36;;;;;;;7.60;2.00;;;;;;;19.41;69.85;101502.75;10548040;28;20047;-73
2022/08/21 20:26:58;;;;;;;12.23;1.92;;;;;;;19.34;69.91;101493.13;10538119;28;20051;-72
2022/08/21 20:32:01;;;;;;;12.15;2.20;;;;;;;19.25;70.31;101497.59;10546329;28;20059;-72
2022/08/21 20:37:04;;;;;;;13.13;1.90;;;;;;;19.15;70.51;101500.31;10542672;28;20522;-73
2022/08/21 20:42:09;;;;;;;7.93;2.15;;;;;;;19.09;70.84;101501.25;10547689;28;20051;-76
2022/08/21 20:47:12;;;;;;;9.57;2.85;;;;;;;18.99;71.20;101503.09;10518889;28;20040;-74
2022/08/21 20:52:21;;;;;;;9.07;1.83;;;;;;;18.94;71.36;101502.22;10543836;28;20627;-74
2022/08/21 20:57:51;;;;;;;10.35;2.08;;;;;;;18.94;71.54;101498.69;10550661;28;20101;-72
2022/08/21 21:03:12;;;;;;;13.05;2.50;;;;;;;18.90;72.23;101496.06;10527303;28;20403;-73
2022/08/21 21:08:20;;;;;;;10.30;3.17;;;;;;;18.90;72.13;101506.69;10537282;28;20798;-73
2022/08/21 21:13:30;;;;;;;11.75;2.25;;;;;;;18.86;72.33;101509.38;10544712;28;20511;-72
2022/08/21 21:19:27;;;;;;;10.45;2.35;;;;;;;18.86;72.76;101523.50;10547226;28;20441;-73
2022/08/21 21:24:35;;;;;;;10.75;2.33;;;;;;;18.90;72.45;101519.06;10497611;28;20048;-73
2022/08/21 21:30:03;;;;;;;10.93;2.03;;;;;;;18.90;72.37;101511.13;10540557;28;20043;-72
2022/08/21 21:35:07;;;;;;;9.57;1.85;;;;;;;18.84;72.69;101514.66;10493745;28;20047;-72
2022/08/21 21:40:18;;;;;;;11.18;2.10;;;;;;;18.73;72.88;101508.50;10545247;28;20059;-73
2022/08/21 21:45:52;;;;;;;9.18;1.92;;;;;;;18.61;73.24;101516.53;10541298;28;20495;-73
2022/08/21 21:50:58;;;;;;;8.80;1.95;;;;;;;-147.53;100.00;57128.34;10535634;28;20050;-73
2022/08/21 21:56:13;;;;;;;7.90;1.83;;;;;;;-147.53;100.00;57128.34;10542103;28;20548;-72
2022/08/21 22:01:42;;;;;;;12.20;2.00;;;;;;;-147.53;100.00;57128.34;10543164;28;20048;-73
2022/08/21 22:06:52;;;;;;;7.67;1.87;;;;;;;-147.53;100.00;57128.34;10542178;28;20056;-73
2022/08/21 22:12:04;;;;;;;13.32;2.10;;;;;;;-147.53;100.00;57128.34;10541197;28;20500;-73
2022/08/21 22:17:34;;;;;;;9.15;1.98;;;;;;;-147.53;100.00;57128.34;10540284;28;20050;-73
2022/08/21 22:22:37;;;;;;;10.45;2.10;;;;;;;-147.53;100.00;57128.34;10541631;28;20502;-72
2022/08/21 22:27:42;;;;;;;9.52;2.20;;;;;;;-147.53;100.00;57128.34;10529953;28;20039;-72
2022/08/21 22:32:48;;;;;;;9.85;1.80;;;;;;;-147.53;100.00;57128.34;10543660;28;20822;-73
2022/08/21 22:37:58;;;;;;;7.63;2.33;;;;;;;-147.53;100.00;57128.34;10537680;28;20028;-73
2022/08/21 22:43:25;;;;;;;9.43;2.08;;;;;;;-147.53;100.00;57128.34;10542475;28;20044;-73
2022/08/21 22:48:32;;;;;;;12.88;2.38;;;;;;;-147.53;100.00;57128.34;10528296;28;20046;-73
2022/08/21 22:53:38;;;;;;;11.63;2.13;;;;;;;-147.53;100.00;57128.34;10544495;28;20051;-73
2022/08/21 22:58:56;;;;;;;11.65;2.80;;;;;;;-147.53;100.00;57128.34;10548316;28;20047;-73
2022/08/21 23:04:11;;;;;;;11.60;2.83;;;;;;;-147.53;100.00;57128.34;10542145;28;20101;-73
2022/08/21 23:09:26;;;;;;;10.48;2.40;;;;;;;-147.53;100.00;57128.34;10549801;28;20100;-73
2022/08/21 23:14:29;;;;;;;9.98;2.38;;;;;;;-147.53;100.00;57128.34;10551604;28;20131;-72
2022/08/21 23:19:50;;;;;;;8.65;2.17;;;;;;;-147.53;100.00;57128.34;10547161;28;20042;-73
2022/08/21 23:24:58;;;;;;;10.43;2.47;;;;;;;-147.53;100.00;57128.34;10546337;28;20733;-73